sensor_id;sensor_type;location;lat;lon;timestamp;pressure;altitude;pressure_sealevel;temperature;humidity
16331;BME280;8275;48.206;16.340;2023-05-07T00:00:28;99250.63;;;19.97;49.54
16331;BME280;8275;48.206;16.340;2023-05-07T00:02:56;99247.34;;;19.95;49.54
16331;BME280;8275;48.206;16.340;2023-05-07T00:05:26;99242.41;;;19.92;49.72
16331;BME280;8275;48.206;16.340;2023-05-07T00:07:55;99250.25;;;19.90;49.56
16331;BME280;8275;48.206;16.340;2023-05-07T00:10:26;99243.69;;;19.86;49.80
16331;BME280;8275;48.206;16.340;2023-05-07T00:12:54;99251.53;;;19.84;49.79
16331;BME280;8275;48.206;16.340;2023-05-07T00:15:23;99250.19;;;19.82;49.86
16331;BME280;8275;48.206;16.340;2023-05-07T00:17:51;99251.31;;;19.81;50.03
16331;BME280;8275;48.206;16.340;2023-05-07T00:20:19;99250.31;;;19.77;50.18
16331;BME280;8275;48.206;16.340;2023-05-07T00:22:49;99249.50;;;19.76;50.19
16331;BME280;8275;48.206;16.340;2023-05-07T00:25:18;99248.16;;;19.74;50.03
16331;BME280;8275;48.206;16.340;2023-05-07T00:27:47;99249.31;;;19.73;50.08
16331;BME280;8275;48.206;16.340;2023-05-07T00:30:16;99254.88;;;19.73;50.24
16331;BME280;8275;48.206;16.340;2023-05-07T00:32:44;99258.78;;;19.72;50.33
16331;BME280;8275;48.206;16.340;2023-05-07T00:35:13;99244.38;;;19.70;50.23
16331;BME280;8275;48.206;16.340;2023-05-07T00:37:41;99249.94;;;19.70;50.32
16331;BME280;8275;48.206;16.340;2023-05-07T00:40:11;99252.22;;;19.68;50.27
16331;BME280;8275;48.206;16.340;2023-05-07T00:42:40;99254.16;;;19.67;50.31
16331;BME280;8275;48.206;16.340;2023-05-07T00:45:09;99248.94;;;19.66;50.56
16331;BME280;8275;48.206;16.340;2023-05-07T00:47:38;99244.50;;;19.65;50.57
16331;BME280;8275;48.206;16.340;2023-05-07T00:50:09;99250.38;;;19.63;50.42
16331;BME280;8275;48.206;16.340;2023-05-07T00:52:40;99241.22;;;19.63;50.54
16331;BME280;8275;48.206;16.340;2023-05-07T00:55:11;99245.78;;;19.58;50.46
16331;BME280;8275;48.206;16.340;2023-05-07T00:57:42;99244.97;;;19.58;50.23
16331;BME280;8275;48.206;16.340;2023-05-07T01:00:12;99250.00;;;19.56;50.25
16331;BME280;8275;48.206;16.340;2023-05-07T01:02:41;99238.91;;;19.56;50.16
16331;BME280;8275;48.206;16.340;2023-05-07T01:05:13;99239.22;;;19.54;50.34
16331;BME280;8275;48.206;16.340;2023-05-07T01:07:43;99243.94;;;19.54;50.03
16331;BME280;8275;48.206;16.340;2023-05-07T01:10:14;99241.78;;;19.51;50.08
16331;BME280;8275;48.206;16.340;2023-05-07T01:12:44;99240.16;;;19.50;49.95
16331;BME280;8275;48.206;16.340;2023-05-07T01:15:14;99234.41;;;19.46;49.87
16331;BME280;8275;48.206;16.340;2023-05-07T01:17:43;99239.97;;;19.46;49.87
16331;BME280;8275;48.206;16.340;2023-05-07T01:20:12;99240.28;;;19.45;49.81
16331;BME280;8275;48.206;16.340;2023-05-07T01:22:43;99244.19;;;19.44;49.66
16331;BME280;8275;48.206;16.340;2023-05-07T01:25:12;99249.75;;;19.44;49.72
16331;BME280;8275;48.206;16.340;2023-05-07T01:27:40;99243.06;;;19.45;49.69
16331;BME280;8275;48.206;16.340;2023-05-07T01:30:10;99250.25;;;19.46;49.82
16331;BME280;8275;48.206;16.340;2023-05-07T01:32:43;99252.19;;;19.45;49.70
16331;BME280;8275;48.206;16.340;2023-05-07T01:35:18;99252.53;;;19.44;49.59
16331;BME280;8275;48.206;16.340;2023-05-07T01:37:48;99260.53;;;19.45;49.31
16331;BME280;8275;48.206;16.340;2023-05-07T01:40:17;99260.53;;;19.45;49.42
16331;BME280;8275;48.206;16.340;2023-05-07T01:42:46;99265.09;;;19.41;49.55
16331;BME280;8275;48.206;16.340;2023-05-07T01:45:15;99260.97;;;19.39;49.43
16331;BME280;8275;48.206;16.340;2023-05-07T01:47:44;99267.19;;;19.36;49.49
16331;BME280;8275;48.206;16.340;2023-05-07T01:50:13;99265.31;;;19.31;49.37
16331;BME280;8275;48.206;16.340;2023-05-07T01:52:43;99263.97;;;19.29;49.30
16331;BME280;8275;48.206;16.340;2023-05-07T01:55:13;99263.75;;;19.25;49.50
16331;BME280;8275;48.206;16.340;2023-05-07T01:57:42;99268.81;;;19.23;49.37
16331;BME280;8275;48.206;16.340;2023-05-07T02:00:12;99264.72;;;19.21;49.52
16331;BME280;8275;48.206;16.340;2023-05-07T02:02:40;99268.13;;;19.18;49.54
16331;BME280;8275;48.206;16.340;2023-05-07T02:05:09;99267.59;;;19.16;49.47
16331;BME280;8275;48.206;16.340;2023-05-07T02:07:37;99270.69;;;19.14;49.65
16331;BME280;8275;48.206;16.340;2023-05-07T02:10:07;99262.19;;;19.11;49.82
16331;BME280;8275;48.206;16.340;2023-05-07T02:12:37;99265.25;;;19.09;49.83
16331;BME280;8275;48.206;16.340;2023-05-07T02:15:07;99257.25;;;19.08;49.74
16331;BME280;8275;48.206;16.340;2023-05-07T02:17:38;99271.13;;;19.08;49.76
16331;BME280;8275;48.206;16.340;2023-05-07T02:20:08;99273.91;;;19.08;49.99
16331;BME280;8275;48.206;16.340;2023-05-07T02:22:40;99271.97;;;19.08;49.92
16331;BME280;8275;48.206;16.340;2023-05-07T02:25:09;99268.03;;;19.09;49.96
16331;BME280;8275;48.206;16.340;2023-05-07T02:27:38;99268.03;;;19.09;50.05
16331;BME280;8275;48.206;16.340;2023-05-07T02:30:08;99276.06;;;19.11;49.89
16331;BME280;8275;48.206;16.340;2023-05-07T02:32:37;99274.09;;;19.11;50.00
16331;BME280;8275;48.206;16.340;2023-05-07T02:35:06;99264.97;;;19.11;49.90
16331;BME280;8275;48.206;16.340;2023-05-07T02:37:35;99269.69;;;19.10;49.96
16331;BME280;8275;48.206;16.340;2023-05-07T02:40:05;99265.91;;;19.06;50.02
16331;BME280;8275;48.206;16.340;2023-05-07T02:42:34;99270.28;;;19.07;49.96
16331;BME280;8275;48.206;16.340;2023-05-07T02:45:05;99277.28;;;19.05;49.96
16331;BME280;8275;48.206;16.340;2023-05-07T02:47:33;99282.66;;;19.01;49.75
16331;BME280;8275;48.206;16.340;2023-05-07T02:50:03;99273.81;;;18.99;49.95
16331;BME280;8275;48.206;16.340;2023-05-07T02:52:31;99278.56;;;18.99;49.89
16331;BME280;8275;48.206;16.340;2023-05-07T02:55:00;99276.72;;;18.94;49.94
16331;BME280;8275;48.206;16.340;2023-05-07T02:57:29;99283.38;;;18.93;49.86
16331;BME280;8275;48.206;16.340;2023-05-07T02:59:58;99285.13;;;18.89;49.86
16331;BME280;8275;48.206;16.340;2023-05-07T03:02:28;99279.91;;;18.87;49.87
16331;BME280;8275;48.206;16.340;2023-05-07T03:04:56;99283.28;;;18.84;49.93
16331;BME280;8275;48.206;16.340;2023-05-07T03:07:25;99288.34;;;18.82;50.02
16331;BME280;8275;48.206;16.340;2023-05-07T03:09:53;99284.22;;;18.80;49.93
16331;BME280;8275;48.206;16.340;2023-05-07T03:12:21;99290.38;;;18.77;49.99
16331;BME280;8275;48.206;16.340;2023-05-07T03:14:50;99291.03;;;18.74;50.15
16331;BME280;8275;48.206;16.340;2023-05-07T03:17:18;99298.00;;;18.71;50.20
16331;BME280;8275;48.206;16.340;2023-05-07T03:19:48;99297.78;;;18.68;50.16
16331;BME280;8275;48.206;16.340;2023-05-07T03:22:17;99303.94;;;18.65;50.44
16331;BME280;8275;48.206;16.340;2023-05-07T03:24:45;99310.13;;;18.62;50.45
16331;BME280;8275;48.206;16.340;2023-05-07T03:27:14;99304.06;;;18.60;50.63
16331;BME280;8275;48.206;16.340;2023-05-07T03:29:42;99313.00;;;18.57;50.51
16331;BME280;8275;48.206;16.340;2023-05-07T03:32:10;99295.84;;;18.55;50.65
16331;BME280;8275;48.206;16.340;2023-05-07T03:34:39;99310.84;;;18.54;50.52
16331;BME280;8275;48.206;16.340;2023-05-07T03:37:09;99311.97;;;18.53;50.65
16331;BME280;8275;48.206;16.340;2023-05-07T03:39:37;99307.56;;;18.52;50.60
16331;BME280;8275;48.206;16.340;2023-05-07T03:42:05;99315.88;;;18.52;50.89
16331;BME280;8275;48.206;16.340;2023-05-07T03:44:34;99320.91;;;18.50;50.97
16331;BME280;8275;48.206;16.340;2023-05-07T03:47:03;99320.41;;;18.48;51.06
16331;BME280;8275;48.206;16.340;2023-05-07T03:49:32;99333.44;;;18.47;50.99
16331;BME280;8275;48.206;16.340;2023-05-07T03:52:00;99324.00;;;18.48;51.05
16331;BME280;8275;48.206;16.340;2023-05-07T03:54:30;99325.63;;;18.49;51.16
16331;BME280;8275;48.206;16.340;2023-05-07T03:56:59;99324.50;;;18.50;51.23
16331;BME280;8275;48.206;16.340;2023-05-07T03:59:27;99329.75;;;18.52;51.22
16331;BME280;8275;48.206;16.340;2023-05-07T04:01:56;99330.25;;;18.54;51.45
16331;BME280;8275;48.206;16.340;2023-05-07T04:04:24;99337.16;;;18.56;51.33
16331;BME280;8275;48.206;16.340;2023-05-07T04:06:53;99336.53;;;18.59;51.41
16331;BME280;8275;48.206;16.340;2023-05-07T04:09:21;99334.78;;;18.63;51.37
16331;BME280;8275;48.206;16.340;2023-05-07T04:11:51;99334.19;;;18.66;51.35
16331;BME280;8275;48.206;16.340;2023-05-07T04:14:19;99340.44;;;18.72;51.39
16331;BME280;8275;48.206;16.340;2023-05-07T04:16:48;99338.41;;;18.77;51.30
16331;BME280;8275;48.206;16.340;2023-05-07T04:19:16;99333.25;;;18.84;51.13
16331;BME280;8275;48.206;16.340;2023-05-07T04:21:45;99342.31;;;18.90;51.20
16331;BME280;8275;48.206;16.340;2023-05-07T04:24:13;99345.28;;;18.93;51.17
16331;BME280;8275;48.206;16.340;2023-05-07T04:26:42;99346.00;;;18.99;51.22
16331;BME280;8275;48.206;16.340;2023-05-07T04:29:11;99343.94;;;19.05;51.11
16331;BME280;8275;48.206;16.340;2023-05-07T04:31:40;99351.84;;;19.11;50.98
16331;BME280;8275;48.206;16.340;2023-05-07T04:34:11;99364.50;;;19.17;51.01
16331;BME280;8275;48.206;16.340;2023-05-07T04:36:39;99371.59;;;19.23;50.78
16331;BME280;8275;48.206;16.340;2023-05-07T04:39:08;99371.81;;;19.27;50.83
16331;BME280;8275;48.206;16.340;2023-05-07T04:41:37;99374.16;;;19.33;50.69
16331;BME280;8275;48.206;16.340;2023-05-07T04:44:06;99377.66;;;19.39;50.65
16331;BME280;8275;48.206;16.340;2023-05-07T04:46:35;99380.84;;;19.46;50.63
16331;BME280;8275;48.206;16.340;2023-05-07T04:49:05;99371.78;;;19.54;50.31
16331;BME280;8275;48.206;16.340;2023-05-07T04:51:33;99381.63;;;19.60;50.37
16331;BME280;8275;48.206;16.340;2023-05-07T04:54:02;99378.41;;;19.67;50.11
16331;BME280;8275;48.206;16.340;2023-05-07T04:56:30;99392.19;;;19.72;49.92
16331;BME280;8275;48.206;16.340;2023-05-07T04:58:58;99383.44;;;19.78;49.74
16331;BME280;8275;48.206;16.340;2023-05-07T05:01:27;99389.88;;;19.87;49.65
16331;BME280;8275;48.206;16.340;2023-05-07T05:03:57;99383.88;;;19.94;49.47
16331;BME280;8275;48.206;16.340;2023-05-07T05:06:27;99382.31;;;20.01;49.42
16331;BME280;8275;48.206;16.340;2023-05-07T05:08:55;99381.56;;;20.09;49.42
16331;BME280;8275;48.206;16.340;2023-05-07T05:11:24;99383.06;;;20.15;49.30
16331;BME280;8275;48.206;16.340;2023-05-07T05:13:52;99387.41;;;20.21;49.47
16331;BME280;8275;48.206;16.340;2023-05-07T05:16:21;99395.31;;;20.28;48.90
16331;BME280;8275;48.206;16.340;2023-05-07T05:18:49;99388.47;;;20.34;49.11
16331;BME280;8275;48.206;16.340;2023-05-07T05:21:20;99399.47;;;20.39;48.78
16331;BME280;8275;48.206;16.340;2023-05-07T05:23:49;99401.31;;;20.44;49.00
16331;BME280;8275;48.206;16.340;2023-05-07T05:26:17;99412.31;;;20.49;48.85
16331;BME280;8275;48.206;16.340;2023-05-07T05:28:46;99411.03;;;20.55;48.61
16331;BME280;8275;48.206;16.340;2023-05-07T05:31:14;99403.88;;;20.62;48.58
16331;BME280;8275;48.206;16.340;2023-05-07T05:33:42;99408.84;;;20.74;48.57
16331;BME280;8275;48.206;16.340;2023-05-07T05:36:11;99410.56;;;20.83;48.32
16331;BME280;8275;48.206;16.340;2023-05-07T05:38:41;99413.38;;;20.92;48.28
16331;BME280;8275;48.206;16.340;2023-05-07T05:41:10;99419.78;;;21.01;48.37
16331;BME280;8275;48.206;16.340;2023-05-07T05:43:39;99419.72;;;21.15;48.31
16331;BME280;8275;48.206;16.340;2023-05-07T05:46:07;99427.97;;;21.28;48.24
16331;BME280;8275;48.206;16.340;2023-05-07T05:48:39;99425.53;;;21.44;48.12
16331;BME280;8275;48.206;16.340;2023-05-07T05:51:07;99421.16;;;21.60;47.86
16331;BME280;8275;48.206;16.340;2023-05-07T05:53:36;99430.19;;;21.74;47.29
16331;BME280;8275;48.206;16.340;2023-05-07T05:56:06;99427.41;;;21.83;46.96
16331;BME280;8275;48.206;16.340;2023-05-07T05:58:35;99426.66;;;21.91;46.46
16331;BME280;8275;48.206;16.340;2023-05-07T06:01:03;99425.31;;;21.97;45.91
16331;BME280;8275;48.206;16.340;2023-05-07T06:03:32;99423.34;;;22.06;45.70
16331;BME280;8275;48.206;16.340;2023-05-07T06:06:00;99418.28;;;22.16;45.35
16331;BME280;8275;48.206;16.340;2023-05-07T06:08:30;99427.13;;;22.27;45.06
16331;BME280;8275;48.206;16.340;2023-05-07T06:10:58;99434.03;;;22.38;45.01
16331;BME280;8275;48.206;16.340;2023-05-07T06:13:29;99432.88;;;22.48;44.98
16331;BME280;8275;48.206;16.340;2023-05-07T06:15:57;99424.16;;;22.58;44.76
16331;BME280;8275;48.206;16.340;2023-05-07T06:18:26;99432.19;;;22.68;44.53
16331;BME280;8275;48.206;16.340;2023-05-07T06:20:54;99439.75;;;22.76;44.50
16331;BME280;8275;48.206;16.340;2023-05-07T06:23:22;99440.41;;;22.81;43.94
16331;BME280;8275;48.206;16.340;2023-05-07T06:25:51;99442.69;;;22.88;43.91
16331;BME280;8275;48.206;16.340;2023-05-07T06:28:19;99443.63;;;23.00;43.67
16331;BME280;8275;48.206;16.340;2023-05-07T06:30:49;99445.22;;;23.10;43.16
16331;BME280;8275;48.206;16.340;2023-05-07T06:33:18;99444.88;;;23.20;42.65
16331;BME280;8275;48.206;16.340;2023-05-07T06:35:47;99435.97;;;23.27;42.48
16331;BME280;8275;48.206;16.340;2023-05-07T06:38:15;99444.16;;;23.32;42.47
16331;BME280;8275;48.206;16.340;2023-05-07T06:40:47;99439.22;;;23.37;42.39
16331;BME280;8275;48.206;16.340;2023-05-07T06:43:16;99443.97;;;23.45;42.10
16331;BME280;8275;48.206;16.340;2023-05-07T06:45:44;99445.69;;;23.58;42.24
16331;BME280;8275;48.206;16.340;2023-05-07T06:48:14;99447.41;;;23.71;41.66
16331;BME280;8275;48.206;16.340;2023-05-07T06:50:42;99450.97;;;23.81;41.62
16331;BME280;8275;48.206;16.340;2023-05-07T06:53:10;99444.88;;;23.87;41.41
16331;BME280;8275;48.206;16.340;2023-05-07T06:55:39;99449.09;;;23.93;41.25
16331;BME280;8275;48.206;16.340;2023-05-07T06:58:08;99442.94;;;24.00;41.24
16331;BME280;8275;48.206;16.340;2023-05-07T07:00:37;99448.19;;;24.10;41.18
16331;BME280;8275;48.206;16.340;2023-05-07T07:03:05;99448.56;;;24.20;40.79
16331;BME280;8275;48.206;16.340;2023-05-07T07:05:35;99455.13;;;24.24;40.60
16331;BME280;8275;48.206;16.340;2023-05-07T07:08:04;99457.72;;;24.29;40.38
16331;BME280;8275;48.206;16.340;2023-05-07T07:10:33;99456.00;;;24.37;40.38
16331;BME280;8275;48.206;16.340;2023-05-07T07:13:01;99457.91;;;24.45;40.14
16331;BME280;8275;48.206;16.340;2023-05-07T07:15:30;99463.25;;;24.59;39.92
16331;BME280;8275;48.206;16.340;2023-05-07T07:17:58;99464.91;;;24.72;39.62
16331;BME280;8275;48.206;16.340;2023-05-07T07:20:27;99466.97;;;24.83;39.44
16331;BME280;8275;48.206;16.340;2023-05-07T07:22:57;99461.88;;;24.97;39.03
16331;BME280;8275;48.206;16.340;2023-05-07T07:25:26;99464.94;;;25.04;38.64
16331;BME280;8275;48.206;16.340;2023-05-07T07:27:55;99457.72;;;25.16;38.60
16331;BME280;8275;48.206;16.340;2023-05-07T07:30:23;99463.81;;;25.30;38.25
16331;BME280;8275;48.206;16.340;2023-05-07T07:32:52;99470.84;;;25.48;38.03
16331;BME280;8275;48.206;16.340;2023-05-07T07:35:20;99470.97;;;25.63;37.63
16331;BME280;8275;48.206;16.340;2023-05-07T07:37:49;99471.09;;;25.67;37.27
16331;BME280;8275;48.206;16.340;2023-05-07T07:40:19;99471.19;;;25.58;37.22
16331;BME280;8275;48.206;16.340;2023-05-07T07:42:48;99469.66;;;25.49;37.07
16331;BME280;8275;48.206;16.340;2023-05-07T07:45:17;99485.28;;;25.38;37.12
16331;BME280;8275;48.206;16.340;2023-05-07T07:47:45;99484.94;;;25.27;36.90
16331;BME280;8275;48.206;16.340;2023-05-07T07:50:14;99482.78;;;25.12;36.75
16331;BME280;8275;48.206;16.340;2023-05-07T07:53:02;99481.72;;;24.92;36.53
16331;BME280;8275;48.206;16.340;2023-05-07T07:55:31;99489.13;;;24.76;36.92
16331;BME280;8275;48.206;16.340;2023-05-07T07:58:00;99490.50;;;24.70;37.19
16331;BME280;8275;48.206;16.340;2023-05-07T08:00:28;99480.06;;;24.71;37.31
16331;BME280;8275;48.206;16.340;2023-05-07T08:02:57;99484.81;;;24.79;37.31
16331;BME280;8275;48.206;16.340;2023-05-07T08:05:25;99483.69;;;24.92;37.31
16331;BME280;8275;48.206;16.340;2023-05-07T08:07:54;99489.81;;;25.06;37.18
16331;BME280;8275;48.206;16.340;2023-05-07T08:10:22;99486.31;;;25.21;37.06
16331;BME280;8275;48.206;16.340;2023-05-07T08:12:52;99483.31;;;25.38;36.73
16331;BME280;8275;48.206;16.340;2023-05-07T08:15:20;99484.06;;;25.59;36.57
16331;BME280;8275;48.206;16.340;2023-05-07T08:17:49;99489.19;;;25.82;36.49
16331;BME280;8275;48.206;16.340;2023-05-07T08:20:18;99492.94;;;25.98;36.26
16331;BME280;8275;48.206;16.340;2023-05-07T08:22:46;99493.88;;;26.14;36.00
16331;BME280;8275;48.206;16.340;2023-05-07T08:25:15;99496.09;;;26.20;35.62
16331;BME280;8275;48.206;16.340;2023-05-07T08:27:43;99494.69;;;26.26;35.46
16331;BME280;8275;48.206;16.340;2023-05-07T08:30:14;99491.63;;;26.31;35.56
16331;BME280;8275;48.206;16.340;2023-05-07T08:32:43;99481.06;;;26.40;35.23
16331;BME280;8275;48.206;16.340;2023-05-07T08:35:11;99499.88;;;26.52;35.04
16331;BME280;8275;48.206;16.340;2023-05-07T08:37:40;99490.38;;;26.57;34.66
16331;BME280;8275;48.206;16.340;2023-05-07T08:40:09;99484.63;;;26.53;34.22
16331;BME280;8275;48.206;16.340;2023-05-07T08:42:41;99487.69;;;26.48;34.34
16331;BME280;8275;48.206;16.340;2023-05-07T08:45:10;99490.97;;;26.50;34.02
16331;BME280;8275;48.206;16.340;2023-05-07T08:47:44;99490.16;;;26.50;33.83
16331;BME280;8275;48.206;16.340;2023-05-07T08:50:15;99495.66;;;26.46;33.46
16331;BME280;8275;48.206;16.340;2023-05-07T08:52:43;99492.78;;;26.42;33.35
16331;BME280;8275;48.206;16.340;2023-05-07T08:55:13;99495.34;;;26.48;33.40
16331;BME280;8275;48.206;16.340;2023-05-07T08:57:42;99489.19;;;26.58;33.44
16331;BME280;8275;48.206;16.340;2023-05-07T09:00:12;99485.75;;;26.64;33.15
16331;BME280;8275;48.206;16.340;2023-05-07T09:02:42;99482.13;;;26.76;33.52
16331;BME280;8275;48.206;16.340;2023-05-07T09:05:11;99485.69;;;26.88;33.13
16331;BME280;8275;48.206;16.340;2023-05-07T09:07:40;99482.00;;;27.00;32.30
16331;BME280;8275;48.206;16.340;2023-05-07T09:10:09;99490.97;;;27.05;32.54
16331;BME280;8275;48.206;16.340;2023-05-07T09:12:38;99487.56;;;27.12;32.23
16331;BME280;8275;48.206;16.340;2023-05-07T09:15:08;99489.84;;;27.22;31.94
16331;BME280;8275;48.206;16.340;2023-05-07T09:17:37;99488.72;;;27.39;31.95
16331;BME280;8275;48.206;16.340;2023-05-07T09:20:08;99491.44;;;27.51;31.99
16331;BME280;8275;48.206;16.340;2023-05-07T09:22:38;99485.25;;;27.61;31.96
16331;BME280;8275;48.206;16.340;2023-05-07T09:25:08;99481.25;;;27.62;31.52
16331;BME280;8275;48.206;16.340;2023-05-07T09:27:37;99471.34;;;27.68;31.24
16331;BME280;8275;48.206;16.340;2023-05-07T09:30:07;99472.72;;;27.74;31.56
16331;BME280;8275;48.206;16.340;2023-05-07T09:32:36;99470.44;;;27.79;31.17
16331;BME280;8275;48.206;16.340;2023-05-07T09:35:15;99464.28;;;27.74;30.58
16331;BME280;8275;48.206;16.340;2023-05-07T09:37:44;99459.25;;;27.67;30.98
16331;BME280;8275;48.206;16.340;2023-05-07T09:40:21;99466.28;;;27.58;30.73
16331;BME280;8275;48.206;16.340;2023-05-07T09:42:50;99473.81;;;27.54;31.25
16331;BME280;8275;48.206;16.340;2023-05-07T09:45:22;99481.72;;;27.48;31.05
16331;BME280;8275;48.206;16.340;2023-05-07T09:47:55;99481.28;;;27.46;30.82
16331;BME280;8275;48.206;16.340;2023-05-07T09:50:29;99472.00;;;27.46;31.07
16331;BME280;8275;48.206;16.340;2023-05-07T09:52:59;99477.25;;;27.47;30.99
16331;BME280;8275;48.206;16.340;2023-05-07T09:55:28;99482.63;;;27.37;30.66
16331;BME280;8275;48.206;16.340;2023-05-07T09:57:57;99475.25;;;27.17;30.69
16331;BME280;8275;48.206;16.340;2023-05-07T10:00:28;99469.94;;;26.99;30.27
16331;BME280;8275;48.206;16.340;2023-05-07T10:02:58;99483.84;;;26.80;30.28
16331;BME280;8275;48.206;16.340;2023-05-07T10:05:28;99484.16;;;26.63;31.13
16331;BME280;8275;48.206;16.340;2023-05-07T10:07:57;99480.22;;;26.52;31.31
16331;BME280;8275;48.206;16.340;2023-05-07T10:10:28;99463.84;;;26.42;31.25
16331;BME280;8275;48.206;16.340;2023-05-07T10:12:57;99462.94;;;26.38;31.23
16331;BME280;8275;48.206;16.340;2023-05-07T10:15:27;99464.47;;;26.35;31.71
16331;BME280;8275;48.206;16.340;2023-05-07T10:17:56;99469.25;;;26.35;31.64
16331;BME280;8275;48.206;16.340;2023-05-07T10:20:27;99468.19;;;26.39;31.24
16331;BME280;8275;48.206;16.340;2023-05-07T10:22:57;99472.84;;;26.48;31.70
16331;BME280;8275;48.206;16.340;2023-05-07T10:25:30;99466.28;;;26.43;31.29
16331;BME280;8275;48.206;16.340;2023-05-07T10:28:03;99462.19;;;26.41;31.24
16331;BME280;8275;48.206;16.340;2023-05-07T10:30:45;99466.75;;;26.45;31.45
16331;BME280;8275;48.206;16.340;2023-05-07T10:33:20;99468.91;;;26.64;31.65
16331;BME280;8275;48.206;16.340;2023-05-07T10:35:57;99464.91;;;26.77;31.55
16331;BME280;8275;48.206;16.340;2023-05-07T10:38:27;99470.09;;;26.91;31.58
16331;BME280;8275;48.206;16.340;2023-05-07T10:40:56;99467.22;;;27.03;31.39
16331;BME280;8275;48.206;16.340;2023-05-07T10:43:25;99464.19;;;27.24;30.83
16331;BME280;8275;48.206;16.340;2023-05-07T10:46:11;99470.03;;;27.46;31.41
16331;BME280;8275;48.206;16.340;2023-05-07T10:49:10;99461.31;;;27.86;30.90
16331;BME280;8275;48.206;16.340;2023-05-07T10:51:40;99459.53;;;28.28;30.24
16331;BME280;8275;48.206;16.340;2023-05-07T10:54:22;99457.22;;;28.53;30.42
16331;BME280;8275;48.206;16.340;2023-05-07T10:56:51;99466.25;;;28.78;29.64
16331;BME280;8275;48.206;16.340;2023-05-07T10:59:38;99466.44;;;29.07;29.31
16331;BME280;8275;48.206;16.340;2023-05-07T11:02:10;99463.91;;;29.44;28.82
16331;BME280;8275;48.206;16.340;2023-05-07T11:04:41;99465.44;;;29.87;28.61
16331;BME280;8275;48.206;16.340;2023-05-07T11:07:25;99461.41;;;30.40;28.36
16331;BME280;8275;48.206;16.340;2023-05-07T11:10:05;99457.31;;;30.68;27.47
16331;BME280;8275;48.206;16.340;2023-05-07T11:12:54;99456.63;;;30.78;27.12
16331;BME280;8275;48.206;16.340;2023-05-07T11:15:41;99451.84;;;30.85;26.39
16331;BME280;8275;48.206;16.340;2023-05-07T11:18:12;99446.50;;;31.10;25.96
16331;BME280;8275;48.206;16.340;2023-05-07T11:20:56;99435.81;;;31.33;25.97
16331;BME280;8275;48.206;16.340;2023-05-07T11:24:09;99422.81;;;31.76;26.62
16331;BME280;8275;48.206;16.340;2023-05-07T11:26:47;99425.59;;;32.23;25.57
16331;BME280;8275;48.206;16.340;2023-05-07T11:29:17;99423.66;;;32.41;24.75
16331;BME280;8275;48.206;16.340;2023-05-07T11:31:50;99435.78;;;32.42;24.72
16331;BME280;8275;48.206;16.340;2023-05-07T11:34:23;99429.81;;;32.50;24.61
16331;BME280;8275;48.206;16.340;2023-05-07T11:36:53;99430.28;;;32.70;23.68
16331;BME280;8275;48.206;16.340;2023-05-07T11:39:31;99435.63;;;32.89;23.84
16331;BME280;8275;48.206;16.340;2023-05-07T11:42:01;99437.75;;;33.24;23.79
16331;BME280;8275;48.206;16.340;2023-05-07T11:44:43;99428.03;;;33.60;23.75
16331;BME280;8275;48.206;16.340;2023-05-07T11:47:18;99442.22;;;33.96;23.23
16331;BME280;8275;48.206;16.340;2023-05-07T11:49:50;99430.41;;;34.15;22.96
16331;BME280;8275;48.206;16.340;2023-05-07T11:52:21;99438.44;;;34.44;22.57
16331;BME280;8275;48.206;16.340;2023-05-07T11:54:52;99431.47;;;34.70;21.93
16331;BME280;8275;48.206;16.340;2023-05-07T11:57:22;99441.50;;;35.06;22.03
16331;BME280;8275;48.206;16.340;2023-05-07T11:59:53;99448.19;;;35.37;21.66
16331;BME280;8275;48.206;16.340;2023-05-07T12:02:22;99439.00;;;35.70;21.32
16331;BME280;8275;48.206;16.340;2023-05-07T12:04:52;99448.00;;;36.10;20.93
16331;BME280;8275;48.206;16.340;2023-05-07T12:07:21;99441.22;;;36.34;19.96
16331;BME280;8275;48.206;16.340;2023-05-07T12:09:51;99446.22;;;36.23;19.66
16331;BME280;8275;48.206;16.340;2023-05-07T12:12:20;99452.44;;;36.14;19.58
16331;BME280;8275;48.206;16.340;2023-05-07T12:14:48;99454.63;;;36.00;19.78
16331;BME280;8275;48.206;16.340;2023-05-07T12:17:17;99453.41;;;36.01;19.86
16331;BME280;8275;48.206;16.340;2023-05-07T12:19:46;99451.06;;;35.85;19.92
16331;BME280;8275;48.206;16.340;2023-05-07T12:22:15;99447.72;;;35.46;19.81
16331;BME280;8275;48.206;16.340;2023-05-07T12:24:45;99445.13;;;35.07;19.98
16331;BME280;8275;48.206;16.340;2023-05-07T12:27:16;99441.03;;;35.11;20.13
16331;BME280;8275;48.206;16.340;2023-05-07T12:29:45;99443.00;;;35.21;20.33
16331;BME280;8275;48.206;16.340;2023-05-07T12:32:15;99441.50;;;35.06;20.51
16331;BME280;8275;48.206;16.340;2023-05-07T12:34:43;99444.34;;;34.96;19.93
16331;BME280;8275;48.206;16.340;2023-05-07T12:37:12;99439.97;;;34.77;20.02
16331;BME280;8275;48.206;16.340;2023-05-07T12:39:44;99440.91;;;34.46;20.06
16331;BME280;8275;48.206;16.340;2023-05-07T12:42:19;99440.91;;;34.53;20.27
16331;BME280;8275;48.206;16.340;2023-05-07T12:44:50;99437.66;;;34.58;20.82
16331;BME280;8275;48.206;16.340;2023-05-07T12:47:21;99434.44;;;34.35;20.55
16331;BME280;8275;48.206;16.340;2023-05-07T12:49:49;99425.56;;;34.01;20.58
16331;BME280;8275;48.206;16.340;2023-05-07T12:52:18;99426.00;;;33.57;20.86
16331;BME280;8275;48.206;16.340;2023-05-07T12:54:48;99422.28;;;33.11;21.06
16331;BME280;8275;48.206;16.340;2023-05-07T12:57:19;99426.25;;;32.71;21.30
16331;BME280;8275;48.206;16.340;2023-05-07T12:59:48;99430.13;;;32.38;21.62
16331;BME280;8275;48.206;16.340;2023-05-07T13:02:16;99433.63;;;32.11;21.66
16331;BME280;8275;48.206;16.340;2023-05-07T13:04:45;99433.84;;;31.91;22.15
16331;BME280;8275;48.206;16.340;2023-05-07T13:07:14;99429.72;;;31.78;22.04
16331;BME280;8275;48.206;16.340;2023-05-07T13:09:43;99417.22;;;31.83;22.08
16331;BME280;8275;48.206;16.340;2023-05-07T13:12:11;99426.91;;;32.43;22.02
16331;BME280;8275;48.206;16.340;2023-05-07T13:14:41;99410.56;;;33.12;21.57